createdAt,value
2023-03-06T00:01:02.528Z,9.35
2023-03-06T00:06:04.933Z,7.53
2023-03-06T00:11:07.250Z,7.13
2023-03-06T00:16:10.308Z,7.20
2023-03-06T00:21:12.503Z,7.43
2023-03-06T00:26:14.690Z,8.13
2023-03-06T00:31:16.960Z,6.75
2023-03-06T00:36:19.227Z,7.25
2023-03-06T00:41:21.556Z,10.73
2023-03-06T00:46:24.039Z,11.43
2023-03-06T00:51:26.404Z,7.07
2023-03-06T00:56:28.682Z,6.80
2023-03-06T01:01:30.877Z,6.18
2023-03-06T01:06:33.080Z,5.43
2023-03-06T01:11:35.244Z,6.35
2023-03-06T01:16:37.598Z,5.63
2023-03-06T01:21:39.909Z,5.53
2023-03-06T01:26:42.051Z,5.68
2023-03-06T01:31:44.377Z,5.43
2023-03-06T01:36:46.567Z,6.32
2023-03-06T01:41:49.079Z,5.72
2023-03-06T01:46:51.385Z,6.13
2023-03-06T01:52:02.372Z,7.90
2023-03-06T01:57:09.944Z,5.53
2023-03-06T02:02:16.025Z,5.60
2023-03-06T02:07:21.221Z,6.18
2023-03-06T02:12:24.296Z,5.88
2023-03-06T02:17:27.983Z,5.40
2023-03-06T02:22:49.018Z,6.90
2023-03-06T02:27:51.155Z,7.38
2023-03-06T02:32:53.589Z,7.40
2023-03-06T02:37:58.144Z,8.48
2023-03-06T02:43:00.356Z,8.32
2023-03-06T02:48:03.467Z,8.45
2023-03-06T02:53:06.785Z,9.00
2023-03-06T02:58:09.871Z,9.15
2023-03-06T03:03:12.138Z,11.48
2023-03-06T03:08:14.350Z,10.85
2023-03-06T03:13:16.559Z,18.75
2023-03-06T03:18:18.648Z,12.00
2023-03-06T03:23:21.220Z,12.35
2023-03-06T03:28:23.474Z,11.15
2023-03-06T03:33:26.267Z,11.48
2023-03-06T03:38:28.759Z,9.88
2023-03-06T03:43:31.268Z,10.05
2023-03-06T03:48:33.650Z,9.77
2023-03-06T03:53:35.892Z,11.45
2023-03-06T03:58:38.075Z,10.57
2023-03-06T04:03:40.311Z,11.32
2023-03-06T04:08:42.772Z,10.15
2023-03-06T04:13:45.016Z,9.32
2023-03-06T04:18:47.113Z,7.85
2023-03-06T04:23:49.238Z,6.45
2023-03-06T04:28:51.393Z,7.20
2023-03-06T04:33:53.669Z,7.22
2023-03-06T04:38:56.299Z,8.50
2023-03-06T04:43:58.450Z,8.70
2023-03-06T04:49:00.646Z,5.63
2023-03-06T04:54:04.195Z,6.65
2023-03-06T04:59:06.359Z,7.13
2023-03-06T05:04:08.465Z,7.85
2023-03-06T05:09:10.669Z,8.07
2023-03-06T05:14:12.947Z,10.77
2023-03-06T05:19:15.709Z,8.75
2023-03-06T05:24:17.828Z,9.60
2023-03-06T05:29:20.130Z,11.32
2023-03-06T05:34:22.366Z,10.60
2023-03-06T05:39:24.526Z,8.55
2023-03-06T05:44:32.526Z,9.45
2023-03-06T05:49:36.225Z,11.82
2023-03-06T05:54:38.676Z,10.70
2023-03-06T05:59:40.898Z,8.27
2023-03-06T06:04:43.965Z,9.13
2023-03-06T06:09:47.088Z,6.30
2023-03-06T06:14:49.709Z,8.45
2023-03-06T06:19:51.912Z,8.48
2023-03-06T06:24:54.063Z,7.75
2023-03-06T06:29:56.204Z,6.63
2023-03-06T06:34:58.598Z,8.30
2023-03-06T06:40:00.725Z,7.70
2023-03-06T06:45:05.603Z,8.52
2023-03-06T06:50:14.277Z,9.13
2023-03-06T06:55:16.894Z,12.48
2023-03-06T07:00:19.703Z,11.73
2023-03-06T07:05:22.243Z,11.88
2023-03-06T07:10:24.406Z,15.43
2023-03-06T07:15:27.759Z,13.45
2023-03-06T07:20:30.055Z,12.63
2023-03-06T07:25:32.377Z,14.88
2023-03-06T07:30:34.591Z,13.85
2023-03-06T07:35:36.931Z,14.93
2023-03-06T07:40:39.513Z,15.23
2023-03-06T07:45:41.732Z,12.65
2023-03-06T07:50:44.044Z,11.95
2023-03-06T07:55:46.165Z,11.60
2023-03-06T08:00:48.405Z,10.32
2023-03-06T08:05:50.670Z,14.52
2023-03-06T08:10:53.236Z,11.35
2023-03-06T08:15:56.681Z,9.48
2023-03-06T08:21:09.708Z,8.95
2023-03-06T08:26:20.709Z,9.45
2023-03-06T08:31:31.310Z,11.85
2023-03-06T08:36:34.380Z,12.15
2023-03-06T08:41:37.604Z,10.77
2023-03-06T08:46:40.562Z,10.40
2023-03-06T08:51:43.385Z,9.52
2023-03-06T08:56:45.702Z,11.30
2023-03-06T09:01:48.267Z,9.30
2023-03-06T09:06:50.765Z,7.28
2023-03-06T09:11:53.973Z,6.93
2023-03-06T09:16:56.310Z,5.75
2023-03-06T09:22:01.262Z,5.13
2023-03-06T09:27:04.966Z,6.05
2023-03-06T09:32:07.575Z,4.95
2023-03-06T09:37:09.765Z,4.75
2023-03-06T09:42:19.221Z,2.92
2023-03-06T09:47:24.355Z,3.10
2023-03-06T09:52:43.860Z,3.28
2023-03-06T09:57:53.108Z,3.10
2023-03-06T10:03:10.778Z,2.22
2023-03-06T10:08:23.735Z,2.15
2023-03-06T10:13:33.136Z,2.40
2023-03-06T10:18:38.824Z,1.95
2023-03-06T10:24:05.017Z,2.30
2023-03-06T10:29:13.174Z,2.58
2023-03-06T10:34:29.107Z,2.30
2023-03-06T10:39:32.283Z,1.90
2023-03-06T10:44:34.718Z,1.75
2023-03-06T10:49:38.193Z,2.13
2023-03-06T10:54:42.688Z,2.70
2023-03-06T10:59:57.621Z,2.33
2023-03-06T11:05:03.087Z,1.83
2023-03-06T11:10:18.345Z,2.03
2023-03-06T11:15:25.167Z,1.90
2023-03-06T11:20:51.512Z,1.88
2023-03-06T11:26:15.869Z,1.85
2023-03-06T11:31:25.937Z,1.67
2023-03-06T11:36:57.380Z,2.08
2023-03-06T11:42:20.769Z,1.30
2023-03-06T11:47:43.086Z,1.55
2023-03-06T11:53:07.153Z,1.60
2023-03-06T11:58:30.511Z,1.52
2023-03-06T12:04:03.833Z,1.80
2023-03-06T12:09:15.128Z,3.70
2023-03-06T12:14:33.150Z,1.70
2023-03-06T12:19:47.261Z,1.90
2023-03-06T12:25:12.129Z,1.70
2023-03-06T12:31:03.114Z,1.50
2023-03-06T12:36:56.109Z,1.70
2023-03-06T12:42:22.882Z,1.65
2023-03-06T12:47:28.598Z,1.67
2023-03-06T12:52:33.591Z,2.00
2023-03-06T12:57:35.937Z,2.00
2023-03-06T13:03:24.618Z,2.25
2023-03-06T13:08:47.085Z,2.08
2023-03-06T13:13:49.530Z,1.85
2023-03-06T13:19:19.347Z,2.33
2023-03-06T13:24:27.176Z,1.80
2023-03-06T13:29:38.440Z,1.95
2023-03-06T13:34:52.074Z,1.75
2023-03-06T13:40:00.006Z,1.80
2023-03-06T13:45:27.654Z,1.80
2023-03-06T13:50:43.128Z,1.25
2023-03-06T13:56:19.930Z,1.42
2023-03-06T14:01:47.377Z,2.10
2023-03-06T14:07:04.405Z,1.30
2023-03-06T14:12:13.699Z,1.85
2023-03-06T14:17:34.799Z,2.00
2023-03-06T14:22:37.768Z,1.70
2023-03-06T14:27:50.381Z,1.63
2023-03-06T14:32:55.198Z,1.63
2023-03-06T14:38:04.957Z,1.75
2023-03-06T14:43:21.146Z,1.75
2023-03-06T14:48:25.730Z,2.30
2023-03-06T14:53:30.969Z,2.53
2023-03-06T14:58:45.523Z,2.45
2023-03-06T15:03:53.396Z,2.42
2023-03-06T15:09:07.264Z,2.40
2023-03-06T15:14:21.916Z,2.70
2023-03-06T15:19:24.363Z,2.60
2023-03-06T15:24:36.337Z,2.15
2023-03-06T15:29:39.484Z,2.58
2023-03-06T15:34:41.791Z,2.35
2023-03-06T15:39:46.808Z,2.72
2023-03-06T15:44:54.266Z,2.40
2023-03-06T15:49:57.268Z,2.42
2023-03-06T15:55:00.235Z,3.05
2023-03-06T16:00:03.716Z,3.42
2023-03-06T16:05:16.535Z,2.60
2023-03-06T16:10:21.784Z,3.50
2023-03-06T16:15:30.531Z,3.25
2023-03-06T16:20:33.846Z,3.05
2023-03-06T16:25:36.967Z,2.90
2023-03-06T16:30:39.208Z,2.22
2023-03-06T16:35:41.708Z,1.88
2023-03-06T16:40:44.200Z,2.70
2023-03-06T16:45:46.888Z,3.20
2023-03-06T16:50:49.377Z,2.20
2023-03-06T16:55:51.648Z,2.28
2023-03-06T17:00:54.920Z,2.08
2023-03-06T17:05:57.162Z,1.98
2023-03-06T17:10:59.782Z,2.95
2023-03-06T17:16:04.157Z,1.85
2023-03-06T17:21:08.969Z,2.42
2023-03-06T17:26:12.771Z,2.28
2023-03-06T17:31:23.753Z,2.35
2023-03-06T17:36:26.685Z,1.95
2023-03-06T17:41:29.709Z,2.42
2023-03-06T17:46:32.461Z,2.63
2023-03-06T17:51:34.677Z,3.08
2023-03-06T17:56:38.645Z,3.65
2023-03-06T18:01:41.675Z,5.45
2023-03-06T18:06:43.868Z,3.63
2023-03-06T18:11:46.180Z,2.83
2023-03-06T18:16:48.872Z,2.72
2023-03-06T18:21:51.022Z,2.38
2023-03-06T18:26:53.147Z,3.00
2023-03-06T18:31:57.208Z,2.30
2023-03-06T18:36:59.365Z,2.25
2023-03-06T18:42:02.741Z,2.72
2023-03-06T18:47:05.046Z,2.42
2023-03-06T18:52:07.346Z,2.88
2023-03-06T18:57:12.613Z,4.28
2023-03-06T19:02:15.621Z,4.15
2023-03-06T19:07:17.836Z,3.60
2023-03-06T19:12:20.561Z,3.97
2023-03-06T19:17:24.958Z,4.68
2023-03-06T19:22:27.322Z,4.35
2023-03-06T19:27:30.578Z,3.30
2023-03-06T19:32:33.586Z,2.30
2023-03-06T19:37:36.857Z,2.83
2023-03-06T19:42:39.286Z,3.20
2023-03-06T19:47:41.610Z,2.63
2023-03-06T19:52:43.809Z,2.30
2023-03-06T19:57:46.077Z,2.55
2023-03-06T20:02:48.236Z,2.80
2023-03-06T20:07:50.875Z,1.90
2023-03-06T20:12:53.555Z,2.35
2023-03-06T20:17:56.879Z,2.45
2023-03-06T20:23:04.592Z,3.38
2023-03-06T20:28:06.754Z,1.83
2023-03-06T20:33:09.426Z,1.90
2023-03-06T20:38:12.142Z,1.63
2023-03-06T20:43:14.382Z,2.10
2023-03-06T20:48:16.639Z,3.42
2023-03-06T20:53:19.516Z,3.28
2023-03-06T20:58:23.682Z,2.90
2023-03-06T21:03:26.042Z,2.80
2023-03-06T21:08:28.285Z,2.03
2023-03-06T21:13:30.514Z,2.75
2023-03-06T21:18:32.823Z,2.92
2023-03-06T21:23:35.153Z,3.70
2023-03-06T21:34:05.340Z,2.80
2023-03-06T21:39:07.848Z,4.25
2023-03-06T21:44:11.393Z,3.70
2023-03-06T21:49:19.075Z,4.07
2023-03-06T21:54:21.911Z,3.90
2023-03-06T21:59:24.360Z,3.60
2023-03-06T22:04:36.405Z,3.95
2023-03-06T22:09:38.835Z,4.07
2023-03-06T22:14:45.647Z,5.50
2023-03-06T22:19:50.429Z,12.60
2023-03-06T22:25:00.329Z,8.05
2023-03-06T22:30:03.730Z,7.90
2023-03-06T22:35:10.005Z,9.20
2023-03-06T22:40:14.528Z,8.48
2023-03-06T22:45:17.313Z,7.03
2023-03-06T22:50:19.580Z,6.97
2023-03-06T22:55:21.731Z,8.10
2023-03-06T23:00:24.053Z,7.05
2023-03-06T23:05:28.468Z,7.07
2023-03-06T23:10:31.510Z,7.05
2023-03-06T23:15:36.628Z,6.00
2023-03-06T23:20:45.424Z,5.70
2023-03-06T23:25:47.602Z,6.28
2023-03-06T23:30:49.886Z,6.25
2023-03-06T23:35:52.252Z,5.07
2023-03-06T23:40:54.464Z,4.47
2023-03-06T23:45:57.253Z,3.53
2023-03-06T23:50:59.631Z,3.20
2023-03-06T23:56:03.360Z,2.42
